createdAt,value
2023-05-08T00:00:06.006Z,16.63
2023-05-08T00:02:34.254Z,16.73
2023-05-08T00:05:02.514Z,16.50
2023-05-08T00:07:32.606Z,11.85
2023-05-08T00:10:01.338Z,19.85
2023-05-08T00:12:29.557Z,11.10
2023-05-08T00:14:57.864Z,9.52
2023-05-08T00:17:26.209Z,10.18
2023-05-08T00:19:54.717Z,15.00
2023-05-08T00:22:23.044Z,12.50
2023-05-08T00:24:52.945Z,9.45
2023-05-08T00:27:21.122Z,12.40
2023-05-08T00:29:49.796Z,11.38
2023-05-08T00:32:18.036Z,13.70
2023-05-08T00:34:46.217Z,10.27
2023-05-08T00:37:14.489Z,11.55
2023-05-08T00:39:42.650Z,12.90
2023-05-08T00:42:12.285Z,16.85
2023-05-08T00:44:41.288Z,11.52
2023-05-08T00:47:10.154Z,8.00
2023-05-08T00:49:39.563Z,9.23
2023-05-08T00:52:09.650Z,14.13
2023-05-08T00:54:39.655Z,8.55
2023-05-08T00:57:09.545Z,13.55
2023-05-08T00:59:41.954Z,14.07
2023-05-08T01:04:38.563Z,9.35
2023-05-08T01:07:07.129Z,10.80
2023-05-08T01:09:35.700Z,9.60
2023-05-08T01:12:11.876Z,6.75
2023-05-08T01:14:58.084Z,11.63
2023-05-08T01:17:37.088Z,8.18
2023-05-08T01:20:17.804Z,10.15
2023-05-08T01:23:15.515Z,13.60
2023-05-08T01:26:12.649Z,13.48
2023-05-08T01:29:02.152Z,13.93
2023-05-08T01:31:48.505Z,9.65
2023-05-08T01:34:23.117Z,7.40
2023-05-08T01:36:55.992Z,6.45
2023-05-08T01:39:40.697Z,10.25
2023-05-08T01:42:15.165Z,8.15
2023-05-08T01:44:47.039Z,10.70
2023-05-08T01:47:17.089Z,9.65
2023-05-08T01:49:50.618Z,10.13
2023-05-08T01:52:28.235Z,11.55
2023-05-08T01:55:03.623Z,11.90
2023-05-08T01:57:34.923Z,15.82
2023-05-08T02:00:05.423Z,11.60
2023-05-08T02:02:38.718Z,10.43
2023-05-08T02:05:12.264Z,8.50
2023-05-08T02:07:43.994Z,10.55
2023-05-08T02:10:15.194Z,12.57
2023-05-08T02:12:45.470Z,11.15
2023-05-08T02:15:17.012Z,10.30
2023-05-08T02:17:48.018Z,12.10
2023-05-08T02:20:18.307Z,9.30
2023-05-08T02:22:50.058Z,12.43
2023-05-08T02:25:19.604Z,9.95
2023-05-08T02:27:50.694Z,7.88
2023-05-08T02:30:20.707Z,8.80
2023-05-08T02:32:51.302Z,5.03
2023-05-08T02:35:25.884Z,9.98
2023-05-08T02:37:56.541Z,8.93
2023-05-08T02:40:28.996Z,3.95
2023-05-08T02:42:57.824Z,6.10
2023-05-08T02:45:30.709Z,7.40
2023-05-08T02:48:09.155Z,9.02
2023-05-08T02:50:43.445Z,7.93
2023-05-08T02:53:19.846Z,6.55
2023-05-08T02:55:52.062Z,8.93
2023-05-08T02:58:26.246Z,5.40
2023-05-08T03:01:00.952Z,7.15
2023-05-08T03:03:37.676Z,10.25
2023-05-08T03:06:14.906Z,4.78
2023-05-08T03:08:44.444Z,10.70
2023-05-08T03:11:17.401Z,8.15
2023-05-08T03:13:48.930Z,4.55
2023-05-08T03:16:21.846Z,10.05
2023-05-08T03:18:55.562Z,6.75
2023-05-08T03:21:29.570Z,4.80
2023-05-08T03:24:01.165Z,4.63
2023-05-08T03:26:30.120Z,6.72
2023-05-08T03:29:00.159Z,8.25
2023-05-08T03:31:34.489Z,6.25
2023-05-08T03:34:04.324Z,10.85
2023-05-08T03:36:34.088Z,6.55
2023-05-08T03:39:03.663Z,9.52
2023-05-08T03:41:32.565Z,8.02
2023-05-08T03:44:03.764Z,5.32
2023-05-08T03:46:32.924Z,5.93
2023-05-08T03:49:05.352Z,8.35
2023-05-08T03:51:37.336Z,4.25
2023-05-08T03:54:05.974Z,4.88
2023-05-08T03:56:35.951Z,5.13
2023-05-08T03:59:15.223Z,3.13
2023-05-08T04:01:51.862Z,1.65
2023-05-08T04:04:28.657Z,3.15
2023-05-08T04:07:05.936Z,2.75
2023-05-08T04:09:46.753Z,3.08
2023-05-08T04:12:19.157Z,6.25
2023-05-08T04:14:53.095Z,5.15
2023-05-08T04:17:29.374Z,1.02
2023-05-08T04:20:04.402Z,1.83
2023-05-08T04:22:36.644Z,2.92
2023-05-08T04:25:08.497Z,2.40
2023-05-08T04:27:37.649Z,2.13
2023-05-08T04:30:07.242Z,3.92
2023-05-08T04:32:40.244Z,3.78
2023-05-08T04:35:10.327Z,3.22
2023-05-08T04:37:40.471Z,4.55
2023-05-08T04:40:10.853Z,2.67
2023-05-08T04:42:43.034Z,1.75
2023-05-08T04:45:12.546Z,6.22
2023-05-08T04:47:41.467Z,6.72
2023-05-08T04:50:10.929Z,8.45
2023-05-08T04:52:40.674Z,3.42
2023-05-08T04:55:10.453Z,2.92
2023-05-08T04:57:40.408Z,3.15
2023-05-08T05:00:10.804Z,3.25
2023-05-08T05:02:41.967Z,3.50
2023-05-08T05:05:10.601Z,4.75
2023-05-08T05:07:40.468Z,3.88
2023-05-08T05:10:09.862Z,5.82
2023-05-08T05:12:39.237Z,3.22
2023-05-08T05:15:08.751Z,4.95
2023-05-08T05:17:39.061Z,2.22
2023-05-08T05:20:09.402Z,2.38
2023-05-08T05:22:37.928Z,5.50
2023-05-08T05:25:08.471Z,4.65
2023-05-08T05:27:38.019Z,2.53
2023-05-08T05:30:08.970Z,2.80
2023-05-08T05:32:38.056Z,4.30
2023-05-08T05:35:07.769Z,4.38
2023-05-08T05:37:36.293Z,1.50
2023-05-08T05:40:04.935Z,6.18
2023-05-08T05:42:37.009Z,2.53
2023-05-08T05:45:05.877Z,7.25
2023-05-08T05:47:34.557Z,2.97
2023-05-08T05:50:04.020Z,2.92
2023-05-08T05:52:33.378Z,2.83
2023-05-08T05:55:02.000Z,3.95
2023-05-08T05:57:30.362Z,7.72
2023-05-08T06:00:00.976Z,2.30
2023-05-08T06:02:34.008Z,3.28
2023-05-08T06:05:02.558Z,2.83
2023-05-08T06:07:30.839Z,2.63
2023-05-08T06:09:59.298Z,2.30
2023-05-08T06:12:28.421Z,1.88
2023-05-08T06:14:57.092Z,1.52
2023-05-08T06:17:26.989Z,4.10
2023-05-08T06:19:56.802Z,1.17
2023-05-08T06:22:25.866Z,0.57
2023-05-08T06:24:54.234Z,0.90
2023-05-08T06:27:22.515Z,3.00
2023-05-08T06:29:53.371Z,0.75
2023-05-08T06:32:22.664Z,3.10
2023-05-08T06:34:52.399Z,0.93
2023-05-08T06:37:20.676Z,1.13
2023-05-08T06:39:50.548Z,0.77
2023-05-08T06:42:22.928Z,0.65
2023-05-08T06:44:53.798Z,1.27
2023-05-08T06:47:22.150Z,1.35
2023-05-08T06:49:50.415Z,0.95
2023-05-08T06:52:20.809Z,0.70
2023-05-08T06:54:49.027Z,1.67
2023-05-08T06:57:17.126Z,2.45
2023-05-08T06:59:45.310Z,1.05
2023-05-08T07:02:13.446Z,2.80
2023-05-08T07:04:41.573Z,1.27
2023-05-08T07:07:09.787Z,1.10
2023-05-08T07:09:39.546Z,7.78
2023-05-08T07:12:08.849Z,1.45
2023-05-08T07:14:37.432Z,15.85
2023-05-08T07:17:07.567Z,7.10
2023-05-08T07:19:38.192Z,20.27
2023-05-08T07:22:07.156Z,12.23
2023-05-08T07:24:35.398Z,3.50
2023-05-08T07:27:05.195Z,6.85
2023-05-08T07:29:33.525Z,5.00
2023-05-08T07:32:01.984Z,23.45
2023-05-08T07:34:30.368Z,25.50
2023-05-08T07:36:58.672Z,11.50
2023-05-08T07:39:26.940Z,38.05
2023-05-08T07:41:55.475Z,61.75
2023-05-08T07:44:25.264Z,33.00
2023-05-08T07:46:54.037Z,80.72
2023-05-08T07:49:22.612Z,57.25
2023-05-08T07:51:51.058Z,71.13
2023-05-08T07:54:19.442Z,133.98
2023-05-08T07:56:47.767Z,112.22
2023-05-08T07:59:16.006Z,130.93
2023-05-08T08:01:47.588Z,60.75
2023-05-08T08:04:16.165Z,49.25
2023-05-08T08:06:44.880Z,133.32
2023-05-08T08:09:13.342Z,71.25
2023-05-08T08:11:41.961Z,67.93
2023-05-08T08:14:10.329Z,82.40
2023-05-08T08:16:38.744Z,68.35
2023-05-08T08:19:08.651Z,109.15
2023-05-08T08:21:37.165Z,116.07
2023-05-08T08:24:06.302Z,87.38
2023-05-08T08:26:34.615Z,115.57
2023-05-08T08:29:03.304Z,94.25
2023-05-08T08:31:31.652Z,141.52
2023-05-08T08:34:00.369Z,103.10
2023-05-08T08:36:30.149Z,139.02
2023-05-08T08:39:03.056Z,121.07
2023-05-08T08:41:36.045Z,181.95
2023-05-08T08:46:34.188Z,65.10
2023-05-08T08:49:10.332Z,85.55
2023-05-08T08:51:52.923Z,79.85
2023-05-08T08:54:24.590Z,41.00
2023-05-08T08:56:57.330Z,27.50
2023-05-08T08:59:27.760Z,54.28
2023-05-08T09:02:25.313Z,53.67
2023-05-08T09:05:00.561Z,36.72
2023-05-08T09:07:32.408Z,20.80
2023-05-08T09:10:02.490Z,30.08
2023-05-08T09:15:46.361Z,26.05
2023-05-08T09:18:17.668Z,10.95
2023-05-08T09:20:47.679Z,27.73
2023-05-08T09:23:27.757Z,44.20
2023-05-08T09:29:09.749Z,12.32
2023-05-08T09:31:40.938Z,8.30
2023-05-08T09:34:12.515Z,12.73
2023-05-08T09:36:42.266Z,10.17
2023-05-08T09:39:16.582Z,6.50
2023-05-08T09:42:00.967Z,12.50
2023-05-08T09:44:29.647Z,4.25
2023-05-08T09:47:15.130Z,10.18
2023-05-08T09:49:58.689Z,6.60
2023-05-08T09:52:27.251Z,7.85
2023-05-08T09:55:00.908Z,7.60
2023-05-08T09:57:30.409Z,17.50
2023-05-08T10:00:05.738Z,11.85
2023-05-08T10:02:36.041Z,32.22
2023-05-08T10:05:06.048Z,15.07
2023-05-08T10:07:35.940Z,9.43
2023-05-08T10:10:07.362Z,7.10
2023-05-08T10:12:38.091Z,8.33
2023-05-08T10:15:07.697Z,4.25
2023-05-08T10:17:42.698Z,5.30
2023-05-08T10:20:15.686Z,6.90
2023-05-08T10:22:45.746Z,8.20
2023-05-08T10:25:18.840Z,7.90
2023-05-08T10:27:55.067Z,6.35
2023-05-08T10:30:27.387Z,9.05
2023-05-08T10:33:01.584Z,17.20
2023-05-08T10:35:31.672Z,22.10
2023-05-08T10:38:00.768Z,7.35
2023-05-08T10:40:30.536Z,24.35
2023-05-08T10:43:02.247Z,22.25
2023-05-08T10:45:32.221Z,34.15
2023-05-08T10:48:10.130Z,13.98
2023-05-08T10:50:58.507Z,24.92
2023-05-08T10:53:36.297Z,61.80
2023-05-08T10:56:06.607Z,121.82
2023-05-08T10:58:37.394Z,79.28
2023-05-08T11:01:27.520Z,47.05
2023-05-08T11:03:56.812Z,31.88
2023-05-08T11:06:46.362Z,18.60
2023-05-08T11:09:23.453Z,46.25
2023-05-08T11:12:04.290Z,41.90
2023-05-08T11:14:34.726Z,24.67
2023-05-08T11:17:07.147Z,30.50
2023-05-08T11:19:36.660Z,29.50
2023-05-08T11:22:30.295Z,25.52
2023-05-08T11:25:04.393Z,11.88
2023-05-08T11:28:02.309Z,26.17
2023-05-08T11:30:39.240Z,30.63
2023-05-08T11:33:18.342Z,38.25
2023-05-08T11:35:54.972Z,48.15
2023-05-08T11:38:26.314Z,21.15
2023-05-08T11:40:59.909Z,48.23
2023-05-08T11:43:42.984Z,21.92
2023-05-08T11:46:16.830Z,15.85
2023-05-08T11:48:45.644Z,26.55
2023-05-08T11:51:14.873Z,19.85
2023-05-08T11:53:45.725Z,14.88
2023-05-08T11:56:14.344Z,25.27
2023-05-08T11:58:44.265Z,26.52
2023-05-08T12:01:12.591Z,22.58
2023-05-08T12:03:41.119Z,14.98
2023-05-08T12:06:09.434Z,12.80
2023-05-08T12:08:40.361Z,12.88
2023-05-08T12:11:08.713Z,19.38
2023-05-08T12:13:37.023Z,16.65
2023-05-08T12:16:07.223Z,12.85
2023-05-08T12:18:36.526Z,19.13
2023-05-08T12:21:05.927Z,14.88
2023-05-08T12:23:34.578Z,19.67
2023-05-08T12:26:03.360Z,16.95
2023-05-08T12:28:32.659Z,11.88
2023-05-08T12:31:01.185Z,11.93
2023-05-08T12:33:31.299Z,12.68
2023-05-08T12:35:59.929Z,21.30
2023-05-08T12:38:29.067Z,18.02
2023-05-08T12:40:57.643Z,11.85
2023-05-08T12:43:33.012Z,17.13
2023-05-08T12:46:01.465Z,13.50
2023-05-08T12:48:31.838Z,16.00
2023-05-08T12:51:05.216Z,12.35
2023-05-08T12:53:34.297Z,13.32
2023-05-08T12:56:04.308Z,13.18
2023-05-08T12:58:33.939Z,11.25
2023-05-08T13:01:10.081Z,13.95
2023-05-08T13:03:40.732Z,16.35
2023-05-08T13:06:20.258Z,18.85
2023-05-08T13:08:54.620Z,15.43
2023-05-08T13:11:31.491Z,10.48
2023-05-08T13:13:59.761Z,14.07
2023-05-08T13:16:28.440Z,16.98
2023-05-08T13:18:58.779Z,15.55
2023-05-08T13:21:28.246Z,20.10
2023-05-08T13:23:57.258Z,11.30
2023-05-08T13:26:26.441Z,12.55
2023-05-08T13:28:56.415Z,11.68
2023-05-08T13:31:25.138Z,9.05
2023-05-08T13:33:53.382Z,11.77
2023-05-08T13:36:23.476Z,17.30
2023-05-08T13:38:54.902Z,8.98
2023-05-08T13:41:23.404Z,9.17
2023-05-08T13:43:51.854Z,13.52
2023-05-08T13:46:20.303Z,10.57
2023-05-08T13:48:48.619Z,14.55
2023-05-08T13:51:17.305Z,13.35
2023-05-08T13:53:46.989Z,7.13
2023-05-08T13:56:15.466Z,6.78
2023-05-08T13:58:43.733Z,10.77
2023-05-08T14:01:25.658Z,14.23
2023-05-08T14:03:55.553Z,75.18
2023-05-08T14:06:24.361Z,16.55
2023-05-08T14:08:56.901Z,27.15
2023-05-08T14:11:26.098Z,36.08
2023-05-08T14:13:54.472Z,41.58
2023-05-08T14:16:23.160Z,52.85
2023-05-08T14:18:51.936Z,16.63
2023-05-08T14:21:20.661Z,27.60
2023-05-08T14:23:50.406Z,30.25
2023-05-08T14:26:20.164Z,55.55
2023-05-08T14:28:50.704Z,27.95
2023-05-08T14:31:23.164Z,61.10
2023-05-08T14:33:51.677Z,68.82
2023-05-08T14:36:20.043Z,105.30
2023-05-08T14:38:54.987Z,113.10
2023-05-08T14:41:28.554Z,107.95
2023-05-08T14:43:57.035Z,77.22
2023-05-08T14:46:26.486Z,50.33
2023-05-08T14:48:57.058Z,31.25
2023-05-08T14:51:27.350Z,14.82
2023-05-08T14:53:56.021Z,9.05
2023-05-08T14:56:26.435Z,4.60
2023-05-08T14:58:59.962Z,3.53
2023-05-08T15:01:30.813Z,11.27
2023-05-08T15:04:00.802Z,9.25
2023-05-08T15:06:32.207Z,6.47
2023-05-08T15:09:00.430Z,3.60
2023-05-08T15:11:30.743Z,3.30
2023-05-08T15:14:01.576Z,4.50
2023-05-08T15:16:30.276Z,4.15
2023-05-08T15:18:58.506Z,2.33
2023-05-08T15:21:27.826Z,2.47
2023-05-08T15:23:56.617Z,3.30
2023-05-08T15:26:25.007Z,5.10
2023-05-08T15:28:54.933Z,2.90
2023-05-08T15:31:23.613Z,7.53
2023-05-08T15:33:51.908Z,18.30
2023-05-08T15:36:20.154Z,17.10
2023-05-08T15:38:49.235Z,6.75
2023-05-08T15:41:17.432Z,5.40
2023-05-08T15:43:46.542Z,6.97
2023-05-08T15:46:16.440Z,7.38
2023-05-08T15:48:44.975Z,5.20
2023-05-08T15:51:13.293Z,6.28
2023-05-08T15:53:41.759Z,7.03
2023-05-08T15:56:13.001Z,14.13
2023-05-08T15:58:42.911Z,6.57
2023-05-08T16:01:11.362Z,17.27
2023-05-08T16:03:41.415Z,3.38
2023-05-08T16:06:16.540Z,4.22
2023-05-08T16:08:45.260Z,4.20
2023-05-08T16:11:13.532Z,7.38
2023-05-08T16:13:41.907Z,7.88
2023-05-08T16:16:10.328Z,3.58
2023-05-08T16:18:39.148Z,2.20
2023-05-08T16:21:12.305Z,3.22
2023-05-08T16:23:40.744Z,3.15
2023-05-08T16:26:09.039Z,3.95
2023-05-08T16:28:37.475Z,4.53
2023-05-08T16:31:07.826Z,18.95
2023-05-08T16:33:36.177Z,4.20
2023-05-08T16:36:05.114Z,17.38
2023-05-08T16:38:35.647Z,43.03
2023-05-08T16:41:04.057Z,2.67
2023-05-08T16:43:33.402Z,4.38
2023-05-08T16:46:12.829Z,3.75
2023-05-08T16:48:43.672Z,2.92
2023-05-08T16:51:13.310Z,3.28
2023-05-08T16:53:54.536Z,1.88
2023-05-08T16:56:28.511Z,2.25
2023-05-08T16:58:57.377Z,1.23
2023-05-08T17:01:25.893Z,1.08
2023-05-08T17:03:54.449Z,1.73
2023-05-08T17:06:28.207Z,1.83
2023-05-08T17:08:59.868Z,1.35
2023-05-08T17:11:30.640Z,1.60
2023-05-08T17:14:01.272Z,3.28
2023-05-08T17:16:30.202Z,2.15
2023-05-08T17:19:00.147Z,2.92
2023-05-08T17:21:30.315Z,1.52
2023-05-08T17:24:01.275Z,2.80
2023-05-08T17:26:35.740Z,6.97
2023-05-08T17:29:07.670Z,1.92
2023-05-08T17:31:40.132Z,4.88
2023-05-08T17:34:13.665Z,3.13
2023-05-08T17:36:42.596Z,2.85
2023-05-08T17:39:12.707Z,1.23
2023-05-08T17:41:42.702Z,7.93
2023-05-08T17:44:13.782Z,1.10
2023-05-08T17:47:06.561Z,1.45
2023-05-08T17:49:35.165Z,6.43
2023-05-08T17:52:04.254Z,2.53
2023-05-08T17:54:41.362Z,2.88
2023-05-08T17:57:27.595Z,2.05
2023-05-08T17:59:58.816Z,0.60
2023-05-08T18:02:27.399Z,1.58
2023-05-08T18:04:55.724Z,2.55
2023-05-08T18:07:25.096Z,0.75
2023-05-08T18:09:54.794Z,1.23
2023-05-08T18:12:23.035Z,1.88
2023-05-08T18:14:51.436Z,1.02
2023-05-08T18:17:22.085Z,1.52
2023-05-08T18:19:50.483Z,1.05
2023-05-08T18:22:18.758Z,2.75
2023-05-08T18:24:47.176Z,1.25
2023-05-08T18:27:17.412Z,1.17
2023-05-08T18:29:45.755Z,1.42
2023-05-08T18:32:13.972Z,1.33
2023-05-08T18:34:42.324Z,1.13
2023-05-08T18:37:10.606Z,1.83
2023-05-08T18:39:38.941Z,3.40
2023-05-08T18:42:07.294Z,1.48
2023-05-08T18:44:37.049Z,2.13
2023-05-08T18:47:06.277Z,2.28
2023-05-08T18:49:34.808Z,5.70
2023-05-08T18:52:03.269Z,3.10
2023-05-08T18:54:31.687Z,2.95
2023-05-08T18:57:01.106Z,6.30
2023-05-08T18:59:29.439Z,5.75
2023-05-08T19:01:59.203Z,3.70
2023-05-08T19:04:27.539Z,4.65
2023-05-08T19:06:55.826Z,2.75
2023-05-08T19:09:24.397Z,2.97
2023-05-08T19:11:52.660Z,5.22
2023-05-08T19:14:20.888Z,4.38
2023-05-08T19:16:49.009Z,6.57
2023-05-08T19:19:18.796Z,5.05
2023-05-08T19:21:46.964Z,7.35
2023-05-08T19:24:16.427Z,12.30
2023-05-08T19:26:44.593Z,11.80
2023-05-08T19:29:12.800Z,11.43
2023-05-08T19:31:41.231Z,8.82
2023-05-08T19:34:09.694Z,16.35
2023-05-08T19:36:39.313Z,51.63
2023-05-08T19:39:07.616Z,9.43
2023-05-08T19:41:35.903Z,7.28
2023-05-08T19:44:04.299Z,15.48
2023-05-08T19:46:32.571Z,6.22
2023-05-08T19:49:00.995Z,9.73
2023-05-08T19:51:29.210Z,3.92
2023-05-08T19:54:14.014Z,6.22
2023-05-08T19:56:49.163Z,13.20
2023-05-08T19:59:17.411Z,6.43
2023-05-08T20:01:45.614Z,4.20
2023-05-08T20:04:13.828Z,3.30
2023-05-08T20:06:42.048Z,2.85
2023-05-08T20:09:11.798Z,7.28
2023-05-08T20:11:40.030Z,6.85
2023-05-08T20:14:08.533Z,4.28
2023-05-08T20:16:36.859Z,3.70
2023-05-08T20:19:05.155Z,8.45
2023-05-08T20:21:34.094Z,5.50
2023-05-08T20:24:02.486Z,6.28
2023-05-08T20:26:32.482Z,5.93
2023-05-08T20:29:01.288Z,2.95
2023-05-08T20:31:30.811Z,3.60
2023-05-08T20:33:59.782Z,4.80
2023-05-08T20:36:28.205Z,3.65
2023-05-08T20:38:57.009Z,2.67
2023-05-08T20:41:25.383Z,4.07
2023-05-08T20:43:56.107Z,3.13
2023-05-08T20:46:24.415Z,4.07
2023-05-08T20:48:52.800Z,4.03
2023-05-08T20:51:21.220Z,4.00
2023-05-08T20:53:49.476Z,7.40
2023-05-08T20:56:19.151Z,5.05
2023-05-08T20:58:47.575Z,3.03
2023-05-08T21:01:20.504Z,4.65
2023-05-08T21:03:49.274Z,3.00
2023-05-08T21:06:17.451Z,4.20
2023-05-08T21:08:45.755Z,57.17
2023-05-08T21:11:14.452Z,39.70
2023-05-08T21:13:43.652Z,8.07
2023-05-08T21:16:12.048Z,48.72
2023-05-08T21:18:41.859Z,21.25
2023-05-08T21:21:16.290Z,27.95
2023-05-08T21:23:44.934Z,7.32
2023-05-08T21:26:13.829Z,10.35
2023-05-08T21:28:41.985Z,19.17
2023-05-08T21:31:10.267Z,5.78
2023-05-08T21:33:38.580Z,4.65
2023-05-08T21:36:08.905Z,19.17
2023-05-08T21:38:37.183Z,10.15
2023-05-08T21:41:09.259Z,14.63
2023-05-08T21:43:37.835Z,29.25
2023-05-08T21:46:07.453Z,6.18
2023-05-08T21:48:35.933Z,14.05
2023-05-08T21:51:06.364Z,6.22
2023-05-08T21:53:36.016Z,7.55
2023-05-08T21:56:04.407Z,2.78
2023-05-08T21:58:32.606Z,3.85
2023-05-08T22:01:00.854Z,2.53
2023-05-08T22:03:30.773Z,4.65
2023-05-08T22:05:59.010Z,3.55
2023-05-08T22:08:27.393Z,15.02
2023-05-08T22:10:57.238Z,3.75
2023-05-08T22:13:25.709Z,4.13
2023-05-08T22:15:54.257Z,6.07
2023-05-08T22:18:22.454Z,18.95
2023-05-08T22:20:50.706Z,17.13
2023-05-08T22:23:18.929Z,79.43
2023-05-08T22:25:47.250Z,4.05
2023-05-08T22:28:18.223Z,7.38
2023-05-08T22:30:46.539Z,13.85
2023-05-08T22:33:15.167Z,7.35
2023-05-08T22:35:43.400Z,12.05
2023-05-08T22:38:11.749Z,7.63
2023-05-08T22:40:42.483Z,5.35
2023-05-08T22:43:11.183Z,11.25
2023-05-08T22:45:40.877Z,7.15
2023-05-08T22:48:10.527Z,11.73
2023-05-08T22:50:38.866Z,6.78
2023-05-08T22:53:08.305Z,9.02
2023-05-08T22:55:36.673Z,6.80
2023-05-08T22:58:05.437Z,6.97
2023-05-08T23:00:33.878Z,4.50
2023-05-08T23:03:03.655Z,5.72
2023-05-08T23:05:31.919Z,5.82
2023-05-08T23:08:00.160Z,5.15
2023-05-08T23:10:28.592Z,4.88
2023-05-08T23:12:57.009Z,6.90
2023-05-08T23:15:25.231Z,5.53
2023-05-08T23:17:53.578Z,4.55
2023-05-08T23:20:23.897Z,5.40
2023-05-08T23:22:52.182Z,5.38
2023-05-08T23:25:20.436Z,5.50
2023-05-08T23:27:48.662Z,7.25
2023-05-08T23:30:17.140Z,7.00
2023-05-08T23:32:45.784Z,4.70
2023-05-08T23:35:14.320Z,7.57
2023-05-08T23:37:44.290Z,9.48
2023-05-08T23:40:13.315Z,8.32
2023-05-08T23:42:41.778Z,7.88
2023-05-08T23:45:11.264Z,7.28
2023-05-08T23:47:39.842Z,8.73
2023-05-08T23:50:08.878Z,5.82
2023-05-08T23:52:37.195Z,7.30
2023-05-08T23:55:07.829Z,6.82
2023-05-08T23:57:36.272Z,9.25
